Lakeridge, Nevada
Current Conditions -  °F | °C
As of 7:53 PM on Wednesday 26 Nov 2014 (Local Time) from KTVL Reporting Station
Clear Clear  
Wind Chill: 40°   Ceiling: Unl
Heat Index: 40°   Visibility: 10mi
Dew Point: 31°   Wind: 0mph
Humidity: 70%   Direction: NA
Pressure: 30.41"   Gusts: NA
Location:  38.9569°N, 119.899°W
Report Text: KTVL 270353Z AUTO 00000KT 10SM CLR 04/M01 A3041 RMK AO2 SLP298 T00441006
Loading
Personal Weather Stations






























Interactive Weather Map New forecast layout! Learn more

10-Day Weather Forecast

Advertisements
Track Severe Weather on mobile